createdAt,value
2022-12-13T00:01:18.896Z,24.40
2022-12-13T00:03:45.476Z,22.17
2022-12-13T00:06:13.528Z,23.80
2022-12-13T00:08:40.721Z,20.03
2022-12-13T00:11:08.877Z,20.50
2022-12-13T00:13:35.398Z,20.03
2022-12-13T00:16:04.095Z,22.10
2022-12-13T00:18:31.205Z,21.23
2022-12-13T00:20:58.259Z,21.77
2022-12-13T00:23:28.382Z,26.20
2022-12-13T00:25:54.858Z,25.97
2022-12-13T00:28:21.379Z,30.90
2022-12-13T00:30:47.910Z,26.30
2022-12-13T00:33:14.424Z,24.73
2022-12-13T00:35:41.966Z,22.47
2022-12-13T00:38:09.634Z,23.90
2022-12-13T00:40:37.457Z,21.13
2022-12-13T00:43:03.968Z,24.30
2022-12-13T00:45:30.489Z,23.93
2022-12-13T00:47:57.007Z,22.47
2022-12-13T00:50:23.548Z,19.27
2022-12-13T00:52:50.306Z,21.03
2022-12-13T00:55:17.193Z,19.13
2022-12-13T00:57:45.183Z,21.17
2022-12-13T01:00:12.279Z,23.03
2022-12-13T01:02:38.826Z,20.13
2022-12-13T01:05:05.696Z,19.20
2022-12-13T01:07:32.241Z,19.53
2022-12-13T01:09:59.014Z,20.10
2022-12-13T01:12:25.491Z,20.23
2022-12-13T01:14:56.219Z,18.70
2022-12-13T01:17:23.526Z,18.00
2022-12-13T01:19:50.079Z,21.90
2022-12-13T01:22:16.600Z,17.90
2022-12-13T01:24:43.382Z,23.07
2022-12-13T01:27:09.890Z,22.07
2022-12-13T01:29:36.662Z,23.10
2022-12-13T01:32:05.177Z,21.67
2022-12-13T01:34:31.989Z,22.57
2022-12-13T01:36:59.031Z,22.37
2022-12-13T01:39:27.147Z,20.90
2022-12-13T01:41:55.372Z,22.00
2022-12-13T01:44:58.460Z,20.13
2022-12-13T01:47:31.607Z,22.40
2022-12-13T01:50:01.375Z,22.83
2022-12-13T01:52:29.958Z,22.93
2022-12-13T01:55:03.649Z,20.10
2022-12-13T01:57:32.225Z,22.77
2022-12-13T01:59:58.809Z,22.83
2022-12-13T02:02:26.682Z,21.17
2022-12-13T02:04:59.391Z,21.73
2022-12-13T02:07:29.556Z,23.20
2022-12-13T02:09:59.855Z,23.57
2022-12-13T02:12:29.738Z,21.77
2022-12-13T02:15:00.619Z,22.37
2022-12-13T02:17:35.503Z,21.40
2022-12-13T02:20:43.212Z,23.07
2022-12-13T02:23:34.562Z,20.23
2022-12-13T02:26:18.907Z,23.17
2022-12-13T02:29:02.008Z,20.80
2022-12-13T02:31:34.911Z,24.97
2022-12-13T02:34:07.373Z,24.17
2022-12-13T02:36:40.813Z,24.50
2022-12-13T02:39:11.245Z,24.63
2022-12-13T02:41:41.214Z,23.53
2022-12-13T02:44:22.271Z,24.33
2022-12-13T02:46:54.781Z,25.00
2022-12-13T02:49:24.797Z,24.23
2022-12-13T02:51:52.488Z,24.40
2022-12-13T02:54:18.999Z,25.77
2022-12-13T02:56:53.646Z,24.07
2022-12-13T02:59:20.248Z,25.57
2022-12-13T03:02:09.673Z,24.43
2022-12-13T03:04:46.789Z,23.93
2022-12-13T03:07:19.589Z,28.27
2022-12-13T03:09:59.774Z,26.93
2022-12-13T03:12:35.122Z,26.43
2022-12-13T03:15:12.723Z,26.17
2022-12-13T03:17:43.999Z,30.57
2022-12-13T03:20:22.839Z,28.93
2022-12-13T03:22:50.381Z,28.83
2022-12-13T03:25:32.184Z,26.00
2022-12-13T03:28:01.571Z,22.83
2022-12-13T03:30:29.703Z,24.07
2022-12-13T03:32:57.566Z,23.73
2022-12-13T03:35:24.751Z,24.97
2022-12-13T03:38:00.593Z,22.73
2022-12-13T03:40:28.239Z,25.60
2022-12-13T03:42:54.887Z,25.20
2022-12-13T03:45:21.784Z,26.10
2022-12-13T03:47:48.334Z,21.40
2022-12-13T03:50:27.255Z,23.07
2022-12-13T03:52:58.380Z,23.53
2022-12-13T03:55:25.181Z,25.17
2022-12-13T03:57:51.690Z,23.43
2022-12-13T04:00:18.417Z,22.03
2022-12-13T04:02:45.018Z,24.47
2022-12-13T04:05:11.580Z,22.73
2022-12-13T04:07:39.423Z,23.70
2022-12-13T04:10:25.441Z,22.97
2022-12-13T04:12:53.491Z,21.63
2022-12-13T04:15:26.859Z,24.10
2022-12-13T04:17:53.382Z,23.70
2022-12-13T04:20:19.898Z,21.97
2022-12-13T04:22:47.745Z,20.10
2022-12-13T04:25:15.179Z,20.90
2022-12-13T04:27:41.895Z,24.30
2022-12-13T04:30:09.312Z,28.87
2022-12-13T04:32:35.815Z,41.63
2022-12-13T04:35:02.345Z,38.80
2022-12-13T04:37:29.057Z,28.77
2022-12-13T04:40:00.843Z,25.20
2022-12-13T04:42:27.824Z,28.30
2022-12-13T04:44:54.362Z,25.77
2022-12-13T04:47:20.910Z,28.43
2022-12-13T04:49:47.398Z,30.00
2022-12-13T04:52:13.930Z,26.27
2022-12-13T04:54:55.458Z,22.77
2022-12-13T04:57:24.044Z,22.67
2022-12-13T04:59:50.539Z,23.27
2022-12-13T05:02:23.102Z,25.50
2022-12-13T05:04:54.224Z,22.87
2022-12-13T05:07:21.489Z,22.07
2022-12-13T05:09:48.078Z,24.03
2022-12-13T05:12:22.297Z,22.97
2022-12-13T05:14:51.265Z,24.93
2022-12-13T05:17:17.925Z,21.93
2022-12-13T05:19:44.456Z,24.63
2022-12-13T05:22:16.153Z,22.77
2022-12-13T05:24:45.857Z,22.60
2022-12-13T05:27:24.508Z,21.67
2022-12-13T05:30:03.613Z,23.27
2022-12-13T05:32:32.734Z,21.23
2022-12-13T05:34:59.242Z,24.37
2022-12-13T05:37:25.969Z,27.47
2022-12-13T05:39:52.492Z,26.07
2022-12-13T05:42:19.048Z,25.57
2022-12-13T05:44:45.550Z,24.77
2022-12-13T05:47:13.389Z,23.03
2022-12-13T05:49:39.897Z,23.40
2022-12-13T05:52:06.423Z,22.63
2022-12-13T05:54:32.934Z,25.10
2022-12-13T05:56:59.432Z,23.20
2022-12-13T05:59:25.972Z,22.77
2022-12-13T06:01:52.559Z,28.30
2022-12-13T06:04:22.408Z,24.80
2022-12-13T06:06:51.096Z,22.10
2022-12-13T06:09:18.309Z,22.10
2022-12-13T06:11:44.771Z,22.93
2022-12-13T06:14:21.369Z,27.83
2022-12-13T06:16:49.535Z,26.23
2022-12-13T06:19:16.139Z,24.67
2022-12-13T06:21:46.208Z,26.57
2022-12-13T06:24:14.548Z,25.17
2022-12-13T06:26:41.107Z,22.93
2022-12-13T06:29:07.623Z,23.83
2022-12-13T06:31:34.171Z,26.93
2022-12-13T06:34:01.500Z,31.67
2022-12-13T06:36:41.551Z,32.73
2022-12-13T06:39:09.483Z,38.43
2022-12-13T06:41:36.058Z,37.23
2022-12-13T06:44:02.625Z,35.30
2022-12-13T06:46:29.161Z,37.93
2022-12-13T06:48:55.704Z,40.10
2022-12-13T06:51:22.666Z,39.63
2022-12-13T06:53:49.805Z,30.40
2022-12-13T06:56:18.370Z,28.90
2022-12-13T06:58:45.191Z,26.43
2022-12-13T07:01:24.720Z,25.33
2022-12-13T07:03:54.003Z,28.57
2022-12-13T07:06:22.240Z,27.80
2022-12-13T07:08:50.547Z,29.30
2022-12-13T07:11:20.417Z,28.30
2022-12-13T07:13:46.976Z,25.27
2022-12-13T07:16:14.735Z,28.90
2022-12-13T07:18:41.399Z,29.87
2022-12-13T07:21:09.582Z,25.07
2022-12-13T07:23:48.549Z,29.30
2022-12-13T07:26:23.716Z,26.03
2022-12-13T07:28:55.118Z,26.63
2022-12-13T07:31:23.021Z,28.43
2022-12-13T07:33:49.997Z,31.57
2022-12-13T07:36:18.255Z,28.50
2022-12-13T07:38:45.299Z,28.23
2022-12-13T07:41:11.974Z,26.33
2022-12-13T07:43:39.877Z,28.70
2022-12-13T07:46:06.842Z,29.87
2022-12-13T07:48:33.514Z,26.70
2022-12-13T07:51:01.724Z,26.53
2022-12-13T07:53:28.248Z,25.60
2022-12-13T07:56:01.752Z,28.97
2022-12-13T07:58:28.231Z,30.73
2022-12-13T08:00:59.240Z,31.40
2022-12-13T08:03:26.606Z,27.37
2022-12-13T08:05:59.311Z,29.50
2022-12-13T08:08:31.333Z,29.20
2022-12-13T08:11:01.600Z,25.07
2022-12-13T08:13:28.216Z,25.47
2022-12-13T08:15:59.387Z,27.53
2022-12-13T08:18:25.890Z,23.30
2022-12-13T08:20:52.386Z,21.63
2022-12-13T08:23:19.128Z,22.93
2022-12-13T08:25:50.951Z,22.97
2022-12-13T08:28:17.504Z,22.53
2022-12-13T08:30:44.077Z,21.70
2022-12-13T08:33:11.952Z,23.70
2022-12-13T08:35:38.445Z,25.90
2022-12-13T08:38:08.698Z,23.97
2022-12-13T08:40:35.428Z,25.13
2022-12-13T08:43:02.290Z,26.50
2022-12-13T08:45:28.837Z,31.87
2022-12-13T08:47:58.451Z,38.87
2022-12-13T08:50:26.576Z,30.40
2022-12-13T08:52:53.099Z,25.13
2022-12-13T08:55:31.206Z,21.30
2022-12-13T08:58:01.003Z,25.43
2022-12-13T09:00:27.923Z,26.00
2022-12-13T09:02:56.445Z,25.43
2022-12-13T09:05:32.340Z,23.03
2022-12-13T09:08:03.191Z,19.67
2022-12-13T09:10:30.260Z,20.47
2022-12-13T09:13:19.313Z,21.70
2022-12-13T09:15:52.090Z,21.27
2022-12-13T09:18:23.935Z,21.20
2022-12-13T09:20:52.672Z,20.13
2022-12-13T09:23:23.354Z,20.53
2022-12-13T09:25:54.746Z,20.80
2022-12-13T09:28:21.334Z,19.13
2022-12-13T09:30:47.823Z,20.63
2022-12-13T09:33:29.156Z,22.97
2022-12-13T09:35:56.898Z,19.00
2022-12-13T09:38:24.750Z,21.17
2022-12-13T09:40:58.621Z,17.83
2022-12-13T09:43:32.726Z,19.80
2022-12-13T09:46:03.866Z,16.97
2022-12-13T09:48:34.950Z,18.33
2022-12-13T09:51:18.073Z,18.17
2022-12-13T09:53:51.561Z,16.17
2022-12-13T09:56:19.271Z,15.80
2022-12-13T09:58:48.800Z,18.03
2022-12-13T10:01:23.451Z,16.70
2022-12-13T10:03:52.919Z,16.63
2022-12-13T10:06:23.686Z,18.97
2022-12-13T10:08:57.431Z,20.63
2022-12-13T10:11:32.341Z,19.67
2022-12-13T10:14:03.662Z,19.47
2022-12-13T10:16:39.251Z,19.90
2022-12-13T10:19:29.168Z,20.63
2022-12-13T10:22:01.423Z,17.37
2022-12-13T10:24:47.090Z,19.53
2022-12-13T10:27:15.374Z,19.03
2022-12-13T10:29:57.331Z,19.77
2022-12-13T10:32:23.864Z,20.63
2022-12-13T10:34:50.428Z,19.50
2022-12-13T10:37:26.532Z,19.07
2022-12-13T10:39:54.422Z,18.17
2022-12-13T10:42:24.998Z,20.43
2022-12-13T10:45:10.585Z,22.77
2022-12-13T10:47:37.216Z,19.20
2022-12-13T10:50:04.412Z,18.20
2022-12-13T10:52:33.181Z,19.00
2022-12-13T10:55:04.273Z,17.27
2022-12-13T10:57:51.495Z,15.93
2022-12-13T11:00:34.736Z,16.13
2022-12-13T11:03:01.646Z,18.83
2022-12-13T11:05:30.655Z,19.20
2022-12-13T11:08:12.632Z,19.33
2022-12-13T11:10:40.651Z,19.70
2022-12-13T11:13:08.304Z,20.33
2022-12-13T11:15:38.128Z,18.40
2022-12-13T11:18:06.723Z,22.40
2022-12-13T11:20:36.562Z,20.43
2022-12-13T11:23:06.006Z,20.93
2022-12-13T11:25:39.198Z,18.70
2022-12-13T11:28:31.557Z,15.97
2022-12-13T11:31:08.062Z,19.10
2022-12-13T11:33:48.330Z,24.40
2022-12-13T11:36:23.290Z,26.53
2022-12-13T11:39:01.034Z,22.57
2022-12-13T11:41:33.077Z,19.70
2022-12-13T11:44:13.158Z,21.80
2022-12-13T11:46:42.783Z,20.27
2022-12-13T11:49:14.723Z,19.40
2022-12-13T11:51:45.371Z,20.53
2022-12-13T11:54:23.610Z,21.20
2022-12-13T11:56:54.902Z,17.90
2022-12-13T11:59:40.005Z,17.80
2022-12-13T12:02:17.078Z,18.60
2022-12-13T12:04:48.489Z,17.33
2022-12-13T12:07:33.895Z,16.47
2022-12-13T12:10:10.481Z,15.70
2022-12-13T12:12:38.125Z,15.73
2022-12-13T12:15:15.945Z,16.27
2022-12-13T12:17:43.968Z,18.37
2022-12-13T12:20:13.144Z,15.70
2022-12-13T12:22:48.442Z,13.73
2022-12-13T12:25:27.151Z,19.23
2022-12-13T12:28:03.830Z,16.27
2022-12-13T12:30:41.814Z,18.43
2022-12-13T12:33:18.429Z,19.07
2022-12-13T12:35:58.312Z,17.40
2022-12-13T12:38:40.754Z,17.33
2022-12-13T12:41:30.690Z,16.77
2022-12-13T12:44:07.414Z,14.23
2022-12-13T12:50:02.698Z,17.13
2022-12-13T12:52:38.338Z,16.73
2022-12-13T12:55:12.034Z,12.27
2022-12-13T12:57:47.295Z,13.43
2022-12-13T13:00:17.532Z,14.57
2022-12-13T13:02:52.182Z,16.17
2022-12-13T13:05:23.663Z,14.73
2022-12-13T13:07:54.957Z,18.03
2022-12-13T13:10:26.660Z,14.20
2022-12-13T13:13:11.488Z,9.70
2022-12-13T13:15:56.893Z,8.57
2022-12-13T13:18:45.271Z,7.37
2022-12-13T13:21:44.727Z,6.03
2022-12-13T13:24:22.205Z,6.90
2022-12-13T13:26:51.093Z,7.27
2022-12-13T13:29:43.357Z,9.27
2022-12-13T13:32:30.100Z,7.80
2022-12-13T13:35:50.624Z,8.13
2022-12-13T13:38:54.454Z,6.77
2022-12-13T13:42:06.662Z,9.30
2022-12-13T13:44:54.856Z,9.97
2022-12-13T13:47:47.998Z,8.60
2022-12-13T13:50:50.664Z,9.47
2022-12-13T13:53:50.913Z,9.40
2022-12-13T13:56:50.467Z,8.37
2022-12-13T14:00:00.202Z,10.03
2022-12-13T14:02:49.836Z,9.33
2022-12-13T14:05:59.813Z,9.37
2022-12-13T14:08:34.657Z,8.63
2022-12-13T14:11:41.269Z,10.93
2022-12-13T14:14:38.410Z,8.57
2022-12-13T14:17:52.793Z,7.73
2022-12-13T14:20:52.932Z,8.20
2022-12-13T14:23:37.432Z,7.90
2022-12-13T14:26:18.074Z,8.43
2022-12-13T14:28:50.013Z,8.87
2022-12-13T14:31:22.167Z,7.50
2022-12-13T14:33:50.981Z,8.87
2022-12-13T14:36:25.789Z,7.23
2022-12-13T14:39:00.743Z,7.67
2022-12-13T14:41:27.253Z,7.97
2022-12-13T14:43:53.766Z,7.57
2022-12-13T14:46:20.330Z,8.13
2022-12-13T14:48:49.670Z,6.50
2022-12-13T14:51:30.978Z,6.90
2022-12-13T14:53:58.308Z,8.10
2022-12-13T14:56:27.865Z,6.57
2022-12-13T14:58:57.811Z,8.37
2022-12-13T15:01:29.460Z,8.83
2022-12-13T15:04:24.777Z,8.70
2022-12-13T15:06:58.291Z,7.40
2022-12-13T15:09:25.348Z,7.57
2022-12-13T15:12:04.322Z,7.77
2022-12-13T15:14:47.575Z,8.27
2022-12-13T15:17:27.807Z,6.63
2022-12-13T15:19:54.545Z,6.67
2022-12-13T15:22:21.144Z,7.83
2022-12-13T15:24:56.718Z,7.77
2022-12-13T15:27:25.504Z,7.93
2022-12-13T15:29:52.772Z,9.80
2022-12-13T15:32:20.354Z,9.32
2022-12-13T15:34:47.034Z,7.77
2022-12-13T15:37:29.743Z,7.90
2022-12-13T15:40:00.408Z,7.23
2022-12-13T15:42:32.215Z,7.30
2022-12-13T15:45:01.891Z,7.33
2022-12-13T15:47:29.350Z,6.60
2022-12-13T15:49:57.883Z,6.90
2022-12-13T15:52:30.839Z,7.60
2022-12-13T15:54:58.722Z,8.63
2022-12-13T15:57:27.721Z,7.20
2022-12-13T16:00:30.207Z,7.93
2022-12-13T16:03:02.090Z,10.50
2022-12-13T16:05:38.297Z,8.50
2022-12-13T16:08:14.411Z,11.10
2022-12-13T16:10:46.315Z,9.90
2022-12-13T16:13:25.749Z,9.13
2022-12-13T16:15:59.776Z,7.93
2022-12-13T16:18:32.075Z,9.60
2022-12-13T16:20:59.418Z,7.47
2022-12-13T16:23:27.688Z,9.33
2022-12-13T16:25:54.489Z,7.63
2022-12-13T16:28:26.327Z,7.17
2022-12-13T16:31:11.117Z,8.23
2022-12-13T16:33:37.734Z,8.83
2022-12-13T16:36:04.739Z,7.43
2022-12-13T16:38:31.277Z,7.70
2022-12-13T16:41:00.521Z,8.37
2022-12-13T16:43:39.550Z,7.63
2022-12-13T16:47:11.451Z,9.53
2022-12-13T16:48:58.698Z,8.30
2022-12-13T16:51:25.228Z,8.90
2022-12-13T16:53:51.706Z,9.13
2022-12-13T16:56:18.224Z,6.67
2022-12-13T16:58:49.679Z,5.97
2022-12-13T17:01:20.438Z,9.00
2022-12-13T17:03:47.402Z,6.17
2022-12-13T17:06:15.867Z,6.20
2022-12-13T17:08:42.415Z,6.27
2022-12-13T17:11:10.824Z,7.60
2022-12-13T17:13:41.262Z,8.90
2022-12-13T17:16:08.444Z,9.10
2022-12-13T17:18:37.021Z,9.07
2022-12-13T17:21:06.382Z,8.57
2022-12-13T17:23:32.901Z,8.03
2022-12-13T17:26:03.917Z,10.33
2022-12-13T17:28:30.719Z,10.13
2022-12-13T17:31:04.504Z,10.10
2022-12-13T17:33:31.032Z,18.67
2022-12-13T17:36:01.314Z,11.27
2022-12-13T17:38:28.238Z,10.00
2022-12-13T17:40:55.077Z,10.43
2022-12-13T17:43:32.703Z,9.50
2022-12-13T17:46:01.745Z,10.93
2022-12-13T17:48:30.555Z,11.87
2022-12-13T17:51:02.106Z,11.40
2022-12-13T17:53:28.965Z,10.90
2022-12-13T17:55:56.694Z,14.13
2022-12-13T17:58:23.475Z,13.57
2022-12-13T18:00:50.458Z,10.60
2022-12-13T18:03:16.941Z,8.20
2022-12-13T18:05:43.462Z,10.50
2022-12-13T18:08:11.655Z,11.67
2022-12-13T18:10:38.192Z,7.87
2022-12-13T18:13:04.724Z,8.03
2022-12-13T18:15:31.307Z,9.40
2022-12-13T18:18:13.126Z,7.73
2022-12-13T18:20:39.717Z,9.13
2022-12-13T18:23:06.309Z,9.90
2022-12-13T18:25:34.190Z,9.13
2022-12-13T18:28:01.376Z,8.70
2022-12-13T18:30:27.987Z,8.37
2022-12-13T18:32:54.539Z,9.93
2022-12-13T18:35:21.054Z,10.00
2022-12-13T18:37:47.527Z,8.63
2022-12-13T18:40:14.095Z,7.23
2022-12-13T18:42:41.965Z,8.33
2022-12-13T18:45:08.837Z,9.13
2022-12-13T18:47:35.422Z,7.03
2022-12-13T18:50:01.995Z,7.47
2022-12-13T18:52:28.597Z,9.10
2022-12-13T18:54:55.102Z,7.87
2022-12-13T18:57:21.670Z,9.67
2022-12-13T18:59:54.667Z,9.10
2022-12-13T19:02:21.673Z,9.80
2022-12-13T19:04:55.029Z,9.03
2022-12-13T19:07:22.454Z,11.20
2022-12-13T19:09:54.947Z,10.63
2022-12-13T19:12:21.842Z,11.03
2022-12-13T19:14:54.758Z,22.77
2022-12-13T19:17:21.797Z,20.33
2022-12-13T19:19:48.540Z,21.00
2022-12-13T19:22:15.153Z,15.40
2022-12-13T19:24:41.701Z,13.90
2022-12-13T19:27:08.222Z,11.87
2022-12-13T19:29:34.758Z,12.77
2022-12-13T19:32:02.607Z,10.67
2022-12-13T19:34:29.132Z,9.77
2022-12-13T19:36:55.650Z,12.30
2022-12-13T19:39:22.341Z,10.23
2022-12-13T19:41:48.852Z,11.67
2022-12-13T19:44:15.460Z,10.20
2022-12-13T19:46:42.051Z,9.33
2022-12-13T19:49:11.295Z,11.07
2022-12-13T19:51:40.008Z,8.77
2022-12-13T19:54:06.735Z,6.93
2022-12-13T19:56:33.304Z,8.50
2022-12-13T19:58:59.817Z,9.60
2022-12-13T20:01:26.399Z,8.87
2022-12-13T20:03:52.955Z,8.53
2022-12-13T20:06:22.370Z,7.17
2022-12-13T20:08:48.934Z,8.63
2022-12-13T20:11:17.704Z,9.17
2022-12-13T20:13:44.198Z,8.77
2022-12-13T20:16:16.113Z,8.57
2022-12-13T20:18:42.657Z,9.20
2022-12-13T20:21:12.660Z,9.37
2022-12-13T20:23:49.427Z,10.03
2022-12-13T20:26:18.848Z,8.80
2022-12-13T20:28:45.443Z,10.03
2022-12-13T20:31:13.723Z,9.60
2022-12-13T20:33:41.139Z,8.10
2022-12-13T20:36:26.221Z,7.73
2022-12-13T20:38:55.525Z,8.50
2022-12-13T20:41:22.053Z,10.03
2022-12-13T20:43:51.322Z,7.30
2022-12-13T20:46:17.896Z,7.57
2022-12-13T20:48:46.164Z,7.90
2022-12-13T20:51:14.444Z,8.30
2022-12-13T20:53:43.835Z,6.87
2022-12-13T20:56:12.778Z,8.23
2022-12-13T20:58:40.418Z,8.63
2022-12-13T21:01:07.686Z,7.97
2022-12-13T21:03:34.696Z,7.13
2022-12-13T21:06:01.244Z,8.10
2022-12-13T21:08:27.762Z,9.43
2022-12-13T21:10:59.343Z,8.33
2022-12-13T21:13:29.902Z,7.70
2022-12-13T21:15:56.520Z,8.13
2022-12-13T21:18:23.058Z,7.67
2022-12-13T21:20:49.547Z,8.87
2022-12-13T21:23:16.085Z,7.83
2022-12-13T21:25:42.565Z,9.83
2022-12-13T21:28:09.045Z,7.47
2022-12-13T21:30:36.881Z,7.50
2022-12-13T21:33:03.564Z,8.83
2022-12-13T21:35:30.041Z,7.33
2022-12-13T21:37:59.690Z,7.60
2022-12-13T21:40:30.154Z,9.30
2022-12-13T21:42:56.651Z,8.40
2022-12-13T21:45:23.177Z,8.33
2022-12-13T21:47:51.093Z,7.63
2022-12-13T21:50:17.835Z,8.03
2022-12-13T21:52:49.548Z,7.80
2022-12-13T21:55:38.350Z,7.50
2022-12-13T21:58:07.571Z,8.37
2022-12-13T22:00:34.993Z,9.53
2022-12-13T22:03:03.520Z,7.93
2022-12-13T22:05:30.039Z,6.70
2022-12-13T22:07:56.529Z,8.10
2022-12-13T22:10:23.079Z,7.47
2022-12-13T22:12:49.623Z,6.40
2022-12-13T22:15:16.170Z,8.10
2022-12-13T22:17:43.147Z,11.23
2022-12-13T22:20:14.091Z,8.97
2022-12-13T22:22:42.035Z,10.10
2022-12-13T22:25:09.605Z,8.30
2022-12-13T22:27:36.216Z,7.87
2022-12-13T22:30:02.775Z,8.73
2022-12-13T22:32:31.935Z,9.23
2022-12-13T22:34:58.440Z,9.03
2022-12-13T22:37:26.326Z,8.30
2022-12-13T22:39:52.860Z,8.00
2022-12-13T22:42:20.139Z,7.97
2022-12-13T22:44:46.695Z,8.07
2022-12-13T22:47:13.232Z,8.27
2022-12-13T22:49:39.723Z,11.63
2022-12-13T22:52:06.227Z,8.97
2022-12-13T22:54:34.080Z,7.40
2022-12-13T22:57:00.631Z,7.27
2022-12-13T22:59:27.137Z,6.13
2022-12-13T23:01:57.988Z,7.50
2022-12-13T23:04:28.105Z,7.90
2022-12-13T23:06:54.602Z,6.90
2022-12-13T23:09:21.302Z,6.30
2022-12-13T23:11:49.121Z,7.67
2022-12-13T23:14:18.135Z,6.53
2022-12-13T23:16:44.981Z,5.60
2022-12-13T23:22:00.279Z,9.67
2022-12-13T23:24:27.034Z,6.67
2022-12-13T23:26:54.942Z,6.20
2022-12-13T23:29:21.545Z,6.77
2022-12-13T23:31:48.976Z,6.53
2022-12-13T23:34:16.274Z,7.20
2022-12-13T23:36:42.839Z,6.37
2022-12-13T23:39:10.860Z,6.63
2022-12-13T23:41:37.385Z,6.40
2022-12-13T23:44:05.331Z,6.87
2022-12-13T23:46:34.120Z,6.80
2022-12-13T23:49:02.079Z,7.00
2022-12-13T23:51:28.646Z,5.87
2022-12-13T23:53:55.605Z,7.03
2022-12-13T23:56:22.940Z,6.13
2022-12-13T23:58:50.076Z,7.03
